sensor_id;sensor_type;location;lat;lon;timestamp;temperature;humidity
55634;DHT22;41504;53.162;6.788;2023-01-10T00:00:32;5.70;92.80
55634;DHT22;41504;53.162;6.788;2023-01-10T00:03:09;5.60;92.80
55634;DHT22;41504;53.162;6.788;2023-01-10T00:05:36;5.60;92.80
55634;DHT22;41504;53.162;6.788;2023-01-10T00:08:03;5.60;92.80
55634;DHT22;41504;53.162;6.788;2023-01-10T00:10:30;5.60;92.90
55634;DHT22;41504;53.162;6.788;2023-01-10T00:12:56;5.60;92.90
55634;DHT22;41504;53.162;6.788;2023-01-10T00:15:40;5.50;92.90
55634;DHT22;41504;53.162;6.788;2023-01-10T00:18:06;5.50;93.00
55634;DHT22;41504;53.162;6.788;2023-01-10T00:20:32;5.50;93.10
55634;DHT22;41504;53.162;6.788;2023-01-10T00:22:57;5.40;93.10
55634;DHT22;41504;53.162;6.788;2023-01-10T00:25:23;5.40;93.10
55634;DHT22;41504;53.162;6.788;2023-01-10T00:27:53;5.40;93.20
55634;DHT22;41504;53.162;6.788;2023-01-10T00:30:26;5.30;93.10
55634;DHT22;41504;53.162;6.788;2023-01-10T00:32:52;5.30;93.20
55634;DHT22;41504;53.162;6.788;2023-01-10T00:35:18;5.30;93.20
55634;DHT22;41504;53.162;6.788;2023-01-10T00:37:44;5.30;93.30
55634;DHT22;41504;53.162;6.788;2023-01-10T00:40:11;5.20;93.30
55634;DHT22;41504;53.162;6.788;2023-01-10T00:42:37;5.20;93.30
55634;DHT22;41504;53.162;6.788;2023-01-10T00:45:22;5.10;93.30
55634;DHT22;41504;53.162;6.788;2023-01-10T00:47:50;5.10;93.40
55634;DHT22;41504;53.162;6.788;2023-01-10T00:50:16;5.20;93.70
55634;DHT22;41504;53.162;6.788;2023-01-10T00:52:42;5.00;93.40
55634;DHT22;41504;53.162;6.788;2023-01-10T00:55:08;5.10;93.50
55634;DHT22;41504;53.162;6.788;2023-01-10T00:57:34;5.00;93.50
55634;DHT22;41504;53.162;6.788;2023-01-10T01:00:00;5.00;93.50
55634;DHT22;41504;53.162;6.788;2023-01-10T01:02:26;5.00;93.50
55634;DHT22;41504;53.162;6.788;2023-01-10T01:04:51;5.00;93.50
55634;DHT22;41504;53.162;6.788;2023-01-10T01:07:17;5.00;93.60
55634;DHT22;41504;53.162;6.788;2023-01-10T01:09:43;5.10;93.60
55634;DHT22;41504;53.162;6.788;2023-01-10T01:12:27;5.10;93.60
55634;DHT22;41504;53.162;6.788;2023-01-10T01:14:53;5.20;93.60
55634;DHT22;41504;53.162;6.788;2023-01-10T01:17:18;5.30;93.50
55634;DHT22;41504;53.162;6.788;2023-01-10T01:19:44;5.40;93.40
55634;DHT22;41504;53.162;6.788;2023-01-10T01:22:10;5.40;93.40
55634;DHT22;41504;53.162;6.788;2023-01-10T01:24:35;5.40;93.30
55634;DHT22;41504;53.162;6.788;2023-01-10T01:27:01;5.50;93.30
55634;DHT22;41504;53.162;6.788;2023-01-10T01:29:27;5.50;93.20
55634;DHT22;41504;53.162;6.788;2023-01-10T01:31:52;5.60;93.20
55634;DHT22;41504;53.162;6.788;2023-01-10T01:34:18;5.60;93.20
55634;DHT22;41504;53.162;6.788;2023-01-10T01:36:44;5.70;93.20
55634;DHT22;41504;53.162;6.788;2023-01-10T01:39:11;5.70;93.10
55634;DHT22;41504;53.162;6.788;2023-01-10T01:41:36;5.70;93.10
55634;DHT22;41504;53.162;6.788;2023-01-10T01:44:20;5.70;93.10
55634;DHT22;41504;53.162;6.788;2023-01-10T01:47:17;5.70;93.10
55634;DHT22;41504;53.162;6.788;2023-01-10T01:49:43;5.70;93.30
55634;DHT22;41504;53.162;6.788;2023-01-10T01:52:14;5.70;93.10
55634;DHT22;41504;53.162;6.788;2023-01-10T01:54:43;5.70;93.20
55634;DHT22;41504;53.162;6.788;2023-01-10T01:57:13;5.70;93.20
55634;DHT22;41504;53.162;6.788;2023-01-10T01:59:43;5.70;93.20
55634;DHT22;41504;53.162;6.788;2023-01-10T02:02:19;5.70;93.20
55634;DHT22;41504;53.162;6.788;2023-01-10T02:04:51;5.70;93.30
55634;DHT22;41504;53.162;6.788;2023-01-10T02:07:19;5.60;93.30
55634;DHT22;41504;53.162;6.788;2023-01-10T02:09:50;5.60;93.30
55634;DHT22;41504;53.162;6.788;2023-01-10T02:12:18;5.60;93.30
55634;DHT22;41504;53.162;6.788;2023-01-10T02:14:44;5.50;93.30
55634;DHT22;41504;53.162;6.788;2023-01-10T02:17:12;5.50;93.30
55634;DHT22;41504;53.162;6.788;2023-01-10T02:19:46;5.50;93.30
55634;DHT22;41504;53.162;6.788;2023-01-10T02:22:35;5.50;93.30
55634;DHT22;41504;53.162;6.788;2023-01-10T02:41:21;5.60;93.20
55634;DHT22;41504;53.162;6.788;2023-01-10T02:43:59;5.60;93.20
55634;DHT22;41504;53.162;6.788;2023-01-10T02:46:28;5.50;93.20
55634;DHT22;41504;53.162;6.788;2023-01-10T02:48:55;5.60;93.20
55634;DHT22;41504;53.162;6.788;2023-01-10T02:51:24;5.60;93.20
55634;DHT22;41504;53.162;6.788;2023-01-10T02:57:03;5.60;93.20
55634;DHT22;41504;53.162;6.788;2023-01-10T03:02:22;5.60;93.10
55634;DHT22;41504;53.162;6.788;2023-01-10T03:05:29;5.60;93.10
55634;DHT22;41504;53.162;6.788;2023-01-10T03:10:47;5.60;93.00
55634;DHT22;41504;53.162;6.788;2023-01-10T03:15:51;5.60;93.00
55634;DHT22;41504;53.162;6.788;2023-01-10T03:18:20;5.60;93.00
55634;DHT22;41504;53.162;6.788;2023-01-10T03:20:50;5.60;92.90
55634;DHT22;41504;53.162;6.788;2023-01-10T03:23:18;5.60;92.90
55634;DHT22;41504;53.162;6.788;2023-01-10T03:25:47;5.70;92.90
55634;DHT22;41504;53.162;6.788;2023-01-10T03:28:36;5.70;92.90
55634;DHT22;41504;53.162;6.788;2023-01-10T03:31:10;5.70;92.90
55634;DHT22;41504;53.162;6.788;2023-01-10T03:33:39;5.60;92.90
55634;DHT22;41504;53.162;6.788;2023-01-10T03:44:19;5.60;93.00
55634;DHT22;41504;53.162;6.788;2023-01-10T03:47:07;5.60;93.10
55634;DHT22;41504;53.162;6.788;2023-01-10T03:49:36;5.60;93.10
55634;DHT22;41504;53.162;6.788;2023-01-10T03:52:03;5.60;93.10
55634;DHT22;41504;53.162;6.788;2023-01-10T03:54:33;5.60;93.10
55634;DHT22;41504;53.162;6.788;2023-01-10T03:56:58;5.60;93.00
55634;DHT22;41504;53.162;6.788;2023-01-10T03:59:28;5.70;93.10
55634;DHT22;41504;53.162;6.788;2023-01-10T04:01:55;5.70;93.10
55634;DHT22;41504;53.162;6.788;2023-01-10T04:04:20;5.70;93.10
55634;DHT22;41504;53.162;6.788;2023-01-10T04:06:46;5.70;93.20
55634;DHT22;41504;53.162;6.788;2023-01-10T04:09:12;5.70;93.20
55634;DHT22;41504;53.162;6.788;2023-01-10T04:11:39;5.70;93.20
55634;DHT22;41504;53.162;6.788;2023-01-10T04:14:05;5.70;93.20
55634;DHT22;41504;53.162;6.788;2023-01-10T04:16:30;5.80;93.20
55634;DHT22;41504;53.162;6.788;2023-01-10T04:18:56;5.90;93.30
55634;DHT22;41504;53.162;6.788;2023-01-10T04:21:22;5.80;93.20
55634;DHT22;41504;53.162;6.788;2023-01-10T04:23:48;5.70;93.20
55634;DHT22;41504;53.162;6.788;2023-01-10T04:26:13;5.70;93.30
55634;DHT22;41504;53.162;6.788;2023-01-10T04:28:39;5.70;93.40
55634;DHT22;41504;53.162;6.788;2023-01-10T04:31:08;5.60;93.40
55634;DHT22;41504;53.162;6.788;2023-01-10T04:33:33;5.50;93.50
55634;DHT22;41504;53.162;6.788;2023-01-10T04:35:59;5.60;93.60
55634;DHT22;41504;53.162;6.788;2023-01-10T04:38:25;5.50;93.60
55634;DHT22;41504;53.162;6.788;2023-01-10T04:40:55;5.50;93.70
55634;DHT22;41504;53.162;6.788;2023-01-10T04:43:22;5.50;93.70
55634;DHT22;41504;53.162;6.788;2023-01-10T04:45:48;5.50;93.80
55634;DHT22;41504;53.162;6.788;2023-01-10T04:48:14;5.40;93.80
55634;DHT22;41504;53.162;6.788;2023-01-10T04:50:39;5.40;93.80
55634;DHT22;41504;53.162;6.788;2023-01-10T04:53:05;5.40;93.80
55634;DHT22;41504;53.162;6.788;2023-01-10T04:55:32;5.50;93.80
55634;DHT22;41504;53.162;6.788;2023-01-10T04:57:57;5.50;93.80
55634;DHT22;41504;53.162;6.788;2023-01-10T05:00:23;5.50;93.80
55634;DHT22;41504;53.162;6.788;2023-01-10T05:02:54;5.50;93.80
55634;DHT22;41504;53.162;6.788;2023-01-10T05:05:20;5.50;93.80
55634;DHT22;41504;53.162;6.788;2023-01-10T05:07:46;5.50;93.70
55634;DHT22;41504;53.162;6.788;2023-01-10T05:10:12;5.50;93.80
55634;DHT22;41504;53.162;6.788;2023-01-10T05:12:38;5.50;93.80
55634;DHT22;41504;53.162;6.788;2023-01-10T05:15:08;5.50;93.80
55634;DHT22;41504;53.162;6.788;2023-01-10T05:17:33;5.50;93.90
55634;DHT22;41504;53.162;6.788;2023-01-10T05:19:59;5.50;93.90
55634;DHT22;41504;53.162;6.788;2023-01-10T05:22:28;5.50;94.00
55634;DHT22;41504;53.162;6.788;2023-01-10T05:24:54;5.60;94.00
55634;DHT22;41504;53.162;6.788;2023-01-10T05:27:19;5.60;94.00
55634;DHT22;41504;53.162;6.788;2023-01-10T05:29:45;5.60;93.90
55634;DHT22;41504;53.162;6.788;2023-01-10T05:32:11;5.70;93.90
55634;DHT22;41504;53.162;6.788;2023-01-10T05:34:37;5.80;93.90
55634;DHT22;41504;53.162;6.788;2023-01-10T05:37:02;5.70;93.80
55634;DHT22;41504;53.162;6.788;2023-01-10T05:39:28;5.80;93.90
55634;DHT22;41504;53.162;6.788;2023-01-10T05:41:54;5.70;93.80
55634;DHT22;41504;53.162;6.788;2023-01-10T05:44:20;5.80;93.90
55634;DHT22;41504;53.162;6.788;2023-01-10T05:46:45;5.80;93.90
55634;DHT22;41504;53.162;6.788;2023-01-10T05:49:11;5.80;93.90
55634;DHT22;41504;53.162;6.788;2023-01-10T05:51:37;5.80;93.90
55634;DHT22;41504;53.162;6.788;2023-01-10T05:54:03;5.80;93.90
55634;DHT22;41504;53.162;6.788;2023-01-10T05:56:28;5.80;94.00
55634;DHT22;41504;53.162;6.788;2023-01-10T05:58:55;5.90;94.10
55634;DHT22;41504;53.162;6.788;2023-01-10T06:01:20;5.90;94.10
55634;DHT22;41504;53.162;6.788;2023-01-10T06:03:46;5.90;94.10
55634;DHT22;41504;53.162;6.788;2023-01-10T06:06:12;5.90;94.20
55634;DHT22;41504;53.162;6.788;2023-01-10T06:08:38;5.90;94.20
55634;DHT22;41504;53.162;6.788;2023-01-10T06:11:05;5.90;94.20
55634;DHT22;41504;53.162;6.788;2023-01-10T06:13:32;6.10;94.40
55634;DHT22;41504;53.162;6.788;2023-01-10T06:15:58;6.10;94.40
55634;DHT22;41504;53.162;6.788;2023-01-10T06:18:23;5.90;94.40
55634;DHT22;41504;53.162;6.788;2023-01-10T06:20:49;5.90;94.40
55634;DHT22;41504;53.162;6.788;2023-01-10T06:23:15;5.90;94.40
55634;DHT22;41504;53.162;6.788;2023-01-10T06:25:41;5.80;94.40
55634;DHT22;41504;53.162;6.788;2023-01-10T06:28:11;5.90;94.50
55634;DHT22;41504;53.162;6.788;2023-01-10T06:30:39;5.80;94.50
55634;DHT22;41504;53.162;6.788;2023-01-10T06:33:07;5.80;94.50
55634;DHT22;41504;53.162;6.788;2023-01-10T06:35:34;5.80;94.50
55634;DHT22;41504;53.162;6.788;2023-01-10T06:38:00;5.80;94.50
55634;DHT22;41504;53.162;6.788;2023-01-10T06:40:26;5.30;94.50
55634;DHT22;41504;53.162;6.788;2023-01-10T06:42:52;5.70;94.60
55634;DHT22;41504;53.162;6.788;2023-01-10T06:45:19;5.60;94.60
55634;DHT22;41504;53.162;6.788;2023-01-10T06:47:44;5.60;94.60
55634;DHT22;41504;53.162;6.788;2023-01-10T06:50:11;5.60;94.70
55634;DHT22;41504;53.162;6.788;2023-01-10T06:52:37;5.60;94.60
55634;DHT22;41504;53.162;6.788;2023-01-10T06:55:06;5.50;94.70
55634;DHT22;41504;53.162;6.788;2023-01-10T06:57:32;5.50;94.70
55634;DHT22;41504;53.162;6.788;2023-01-10T07:00:07;5.50;94.70
55634;DHT22;41504;53.162;6.788;2023-01-10T07:02:33;5.50;94.70
55634;DHT22;41504;53.162;6.788;2023-01-10T07:04:59;5.50;94.70
55634;DHT22;41504;53.162;6.788;2023-01-10T07:07:24;5.50;94.70
55634;DHT22;41504;53.162;6.788;2023-01-10T07:09:50;5.50;94.70
55634;DHT22;41504;53.162;6.788;2023-01-10T07:12:16;5.50;94.70
55634;DHT22;41504;53.162;6.788;2023-01-10T07:14:42;5.40;94.70
55634;DHT22;41504;53.162;6.788;2023-01-10T07:17:07;5.40;94.70
55634;DHT22;41504;53.162;6.788;2023-01-10T07:19:33;5.40;94.90
55634;DHT22;41504;53.162;6.788;2023-01-10T07:21:59;5.40;94.70
55634;DHT22;41504;53.162;6.788;2023-01-10T07:24:24;5.40;94.60
55634;DHT22;41504;53.162;6.788;2023-01-10T07:26:54;5.50;94.60
55634;DHT22;41504;53.162;6.788;2023-01-10T07:29:20;5.50;94.60
55634;DHT22;41504;53.162;6.788;2023-01-10T07:31:46;5.50;94.60
55634;DHT22;41504;53.162;6.788;2023-01-10T07:34:12;5.50;94.60
55634;DHT22;41504;53.162;6.788;2023-01-10T07:36:41;5.60;94.50
55634;DHT22;41504;53.162;6.788;2023-01-10T07:39:07;5.70;94.50
55634;DHT22;41504;53.162;6.788;2023-01-10T07:41:32;5.80;94.50
55634;DHT22;41504;53.162;6.788;2023-01-10T07:43:58;5.80;94.40
55634;DHT22;41504;53.162;6.788;2023-01-10T07:46:24;5.80;94.40
55634;DHT22;41504;53.162;6.788;2023-01-10T07:48:50;5.80;94.40
55634;DHT22;41504;53.162;6.788;2023-01-10T07:51:16;5.80;94.40
55634;DHT22;41504;53.162;6.788;2023-01-10T07:53:42;5.80;94.40
55634;DHT22;41504;53.162;6.788;2023-01-10T07:56:07;5.80;94.40
55634;DHT22;41504;53.162;6.788;2023-01-10T07:58:33;5.80;94.50
55634;DHT22;41504;53.162;6.788;2023-01-10T08:01:04;5.80;94.50
55634;DHT22;41504;53.162;6.788;2023-01-10T08:03:33;5.80;94.60
55634;DHT22;41504;53.162;6.788;2023-01-10T08:05:59;5.80;94.60
55634;DHT22;41504;53.162;6.788;2023-01-10T08:08:25;6.00;94.60
55634;DHT22;41504;53.162;6.788;2023-01-10T08:10:51;5.90;94.60
55634;DHT22;41504;53.162;6.788;2023-01-10T08:13:16;5.90;94.60
55634;DHT22;41504;53.162;6.788;2023-01-10T08:15:42;5.90;94.60
55634;DHT22;41504;53.162;6.788;2023-01-10T08:18:09;5.90;94.60
55634;DHT22;41504;53.162;6.788;2023-01-10T08:20:35;5.90;94.70
55634;DHT22;41504;53.162;6.788;2023-01-10T08:23:01;5.90;94.60
55634;DHT22;41504;53.162;6.788;2023-01-10T08:25:26;6.00;94.60
55634;DHT22;41504;53.162;6.788;2023-01-10T08:27:52;6.00;94.60
55634;DHT22;41504;53.162;6.788;2023-01-10T08:30:18;5.90;94.60
55634;DHT22;41504;53.162;6.788;2023-01-10T08:32:44;6.00;94.70
55634;DHT22;41504;53.162;6.788;2023-01-10T08:35:10;6.00;94.70
55634;DHT22;41504;53.162;6.788;2023-01-10T08:37:35;6.00;94.60
55634;DHT22;41504;53.162;6.788;2023-01-10T08:40:01;6.00;94.60
55634;DHT22;41504;53.162;6.788;2023-01-10T08:42:27;6.00;94.60
55634;DHT22;41504;53.162;6.788;2023-01-10T08:44:53;6.00;94.60
55634;DHT22;41504;53.162;6.788;2023-01-10T08:47:19;6.10;94.60
55634;DHT22;41504;53.162;6.788;2023-01-10T08:49:54;6.00;94.60
55634;DHT22;41504;53.162;6.788;2023-01-10T08:52:19;6.00;94.50
55634;DHT22;41504;53.162;6.788;2023-01-10T08:54:48;6.20;94.60
55634;DHT22;41504;53.162;6.788;2023-01-10T08:57:14;6.10;94.50
55634;DHT22;41504;53.162;6.788;2023-01-10T08:59:40;6.10;94.50
55634;DHT22;41504;53.162;6.788;2023-01-10T09:02:07;6.00;94.50
55634;DHT22;41504;53.162;6.788;2023-01-10T09:04:37;6.00;94.50
55634;DHT22;41504;53.162;6.788;2023-01-10T09:07:03;6.10;94.50
55634;DHT22;41504;53.162;6.788;2023-01-10T09:09:29;6.10;94.50
55634;DHT22;41504;53.162;6.788;2023-01-10T09:11:54;6.10;94.50
55634;DHT22;41504;53.162;6.788;2023-01-10T09:14:22;6.20;94.40
55634;DHT22;41504;53.162;6.788;2023-01-10T09:16:48;6.20;94.40
55634;DHT22;41504;53.162;6.788;2023-01-10T09:19:18;6.10;94.30
55634;DHT22;41504;53.162;6.788;2023-01-10T09:21:44;6.30;94.30
55634;DHT22;41504;53.162;6.788;2023-01-10T09:24:10;6.30;94.20
55634;DHT22;41504;53.162;6.788;2023-01-10T09:26:39;6.50;94.10
55634;DHT22;41504;53.162;6.788;2023-01-10T09:29:07;6.30;94.00
55634;DHT22;41504;53.162;6.788;2023-01-10T09:31:35;6.40;94.00
55634;DHT22;41504;53.162;6.788;2023-01-10T09:34:01;6.40;94.00
55634;DHT22;41504;53.162;6.788;2023-01-10T09:36:27;6.40;94.00
55634;DHT22;41504;53.162;6.788;2023-01-10T09:38:52;6.50;94.10
55634;DHT22;41504;53.162;6.788;2023-01-10T09:44:40;6.60;93.90
55634;DHT22;41504;53.162;6.788;2023-01-10T09:53:15;6.60;93.90
55634;DHT22;41504;53.162;6.788;2023-01-10T09:55:41;6.60;93.90
55634;DHT22;41504;53.162;6.788;2023-01-10T09:58:14;6.70;93.90
55634;DHT22;41504;53.162;6.788;2023-01-10T10:00:51;6.70;93.90
55634;DHT22;41504;53.162;6.788;2023-01-10T10:03:21;6.70;94.00
55634;DHT22;41504;53.162;6.788;2023-01-10T10:05:48;6.70;93.80
55634;DHT22;41504;53.162;6.788;2023-01-10T10:08:18;6.80;93.90
55634;DHT22;41504;53.162;6.788;2023-01-10T10:30:52;6.90;93.60
55634;DHT22;41504;53.162;6.788;2023-01-10T10:38:44;6.80;93.50
55634;DHT22;41504;53.162;6.788;2023-01-10T10:41:17;6.80;93.50
55634;DHT22;41504;53.162;6.788;2023-01-10T10:43:45;6.90;93.70
55634;DHT22;41504;53.162;6.788;2023-01-10T10:46:14;6.90;93.60
55634;DHT22;41504;53.162;6.788;2023-01-10T10:48:56;6.90;93.60
55634;DHT22;41504;53.162;6.788;2023-01-10T10:53:57;6.90;93.60
55634;DHT22;41504;53.162;6.788;2023-01-10T10:56:24;6.90;93.50
55634;DHT22;41504;53.162;6.788;2023-01-10T10:58:53;6.90;93.50
55634;DHT22;41504;53.162;6.788;2023-01-10T11:01:21;7.00;93.50
55634;DHT22;41504;53.162;6.788;2023-01-10T11:03:59;6.90;93.50
55634;DHT22;41504;53.162;6.788;2023-01-10T11:06:27;7.00;93.40
55634;DHT22;41504;53.162;6.788;2023-01-10T11:09:01;7.00;93.50
55634;DHT22;41504;53.162;6.788;2023-01-10T11:11:33;7.00;93.50
55634;DHT22;41504;53.162;6.788;2023-01-10T11:14:04;7.00;93.40
55634;DHT22;41504;53.162;6.788;2023-01-10T11:16:37;7.00;93.40
55634;DHT22;41504;53.162;6.788;2023-01-10T11:19:24;7.00;93.30
55634;DHT22;41504;53.162;6.788;2023-01-10T11:22:01;7.10;93.30
55634;DHT22;41504;53.162;6.788;2023-01-10T11:25:02;7.10;93.30
55634;DHT22;41504;53.162;6.788;2023-01-10T11:27:32;7.10;93.50
55634;DHT22;41504;53.162;6.788;2023-01-10T11:30:07;7.10;93.20
55634;DHT22;41504;53.162;6.788;2023-01-10T11:32:38;7.10;93.20
55634;DHT22;41504;53.162;6.788;2023-01-10T11:35:19;7.20;93.20
55634;DHT22;41504;53.162;6.788;2023-01-10T11:40:29;7.20;93.20
55634;DHT22;41504;53.162;6.788;2023-01-10T11:42:57;7.20;93.10
55634;DHT22;41504;53.162;6.788;2023-01-10T11:45:30;7.20;93.00
55634;DHT22;41504;53.162;6.788;2023-01-10T11:50:40;7.20;93.00
55634;DHT22;41504;53.162;6.788;2023-01-10T11:55:53;7.20;92.80
55634;DHT22;41504;53.162;6.788;2023-01-10T11:58:18;7.20;92.70
55634;DHT22;41504;53.162;6.788;2023-01-10T12:00:48;7.20;92.60
55634;DHT22;41504;53.162;6.788;2023-01-10T12:03:27;7.20;92.70
55634;DHT22;41504;53.162;6.788;2023-01-10T12:05:57;7.20;92.80
55634;DHT22;41504;53.162;6.788;2023-01-10T12:08:32;7.20;92.80
55634;DHT22;41504;53.162;6.788;2023-01-10T12:11:23;7.20;92.80
55634;DHT22;41504;53.162;6.788;2023-01-10T12:13:54;7.20;92.70
55634;DHT22;41504;53.162;6.788;2023-01-10T12:16:24;7.20;92.80
55634;DHT22;41504;53.162;6.788;2023-01-10T12:18:53;7.20;92.70
55634;DHT22;41504;53.162;6.788;2023-01-10T12:21:24;7.20;92.60
55634;DHT22;41504;53.162;6.788;2023-01-10T12:23:53;7.20;92.60
55634;DHT22;41504;53.162;6.788;2023-01-10T12:26:19;7.20;92.50
55634;DHT22;41504;53.162;6.788;2023-01-10T12:28:51;7.20;92.50
55634;DHT22;41504;53.162;6.788;2023-01-10T12:31:21;7.20;92.60
55634;DHT22;41504;53.162;6.788;2023-01-10T12:33:57;7.20;92.50
55634;DHT22;41504;53.162;6.788;2023-01-10T12:42:03;7.30;92.20
55634;DHT22;41504;53.162;6.788;2023-01-10T12:55:27;7.30;92.10
55634;DHT22;41504;53.162;6.788;2023-01-10T12:57:57;7.30;92.30
55634;DHT22;41504;53.162;6.788;2023-01-10T13:00:41;7.30;92.10
55634;DHT22;41504;53.162;6.788;2023-01-10T13:03:19;7.30;92.00
55634;DHT22;41504;53.162;6.788;2023-01-10T13:05:46;7.30;92.00
55634;DHT22;41504;53.162;6.788;2023-01-10T13:08:16;7.30;91.90
55634;DHT22;41504;53.162;6.788;2023-01-10T13:10:50;7.30;91.80
55634;DHT22;41504;53.162;6.788;2023-01-10T13:13:39;7.30;91.80
55634;DHT22;41504;53.162;6.788;2023-01-10T13:21:46;7.30;91.70
55634;DHT22;41504;53.162;6.788;2023-01-10T13:27:02;7.20;91.80
55634;DHT22;41504;53.162;6.788;2023-01-10T13:29:30;7.20;91.90
55634;DHT22;41504;53.162;6.788;2023-01-10T13:32:17;7.20;92.10
55634;DHT22;41504;53.162;6.788;2023-01-10T13:34:44;7.20;91.60
55634;DHT22;41504;53.162;6.788;2023-01-10T13:37:34;7.10;91.70
55634;DHT22;41504;53.162;6.788;2023-01-10T13:39:58;7.20;91.60
55634;DHT22;41504;53.162;6.788;2023-01-10T13:42:32;7.20;91.60
55634;DHT22;41504;53.162;6.788;2023-01-10T13:52:54;7.10;91.60
55634;DHT22;41504;53.162;6.788;2023-01-10T13:55:54;7.10;91.50
55634;DHT22;41504;53.162;6.788;2023-01-10T14:01:35;7.00;91.30
55634;DHT22;41504;53.162;6.788;2023-01-10T14:04:29;7.00;91.30
55634;DHT22;41504;53.162;6.788;2023-01-10T14:06:58;7.00;91.40
55634;DHT22;41504;53.162;6.788;2023-01-10T14:09:41;6.90;91.50
55634;DHT22;41504;53.162;6.788;2023-01-10T14:12:24;6.90;91.50
55634;DHT22;41504;53.162;6.788;2023-01-10T14:15:00;6.90;91.60
55634;DHT22;41504;53.162;6.788;2023-01-10T14:17:29;6.90;91.60
55634;DHT22;41504;53.162;6.788;2023-01-10T14:20:06;6.90;91.60
55634;DHT22;41504;53.162;6.788;2023-01-10T14:22:37;6.90;91.70
55634;DHT22;41504;53.162;6.788;2023-01-10T14:25:13;6.90;91.80
55634;DHT22;41504;53.162;6.788;2023-01-10T14:27:45;6.90;91.80
55634;DHT22;41504;53.162;6.788;2023-01-10T14:30:40;6.90;91.70
55634;DHT22;41504;53.162;6.788;2023-01-10T14:33:15;6.90;91.70
55634;DHT22;41504;53.162;6.788;2023-01-10T14:35:46;6.80;91.70
55634;DHT22;41504;53.162;6.788;2023-01-10T14:40:51;6.80;91.70
55634;DHT22;41504;53.162;6.788;2023-01-10T14:43:24;6.80;91.70
55634;DHT22;41504;53.162;6.788;2023-01-10T14:45:59;6.80;91.70
55634;DHT22;41504;53.162;6.788;2023-01-10T14:48:30;6.80;91.70
55634;DHT22;41504;53.162;6.788;2023-01-10T14:51:29;6.80;91.70
55634;DHT22;41504;53.162;6.788;2023-01-10T14:53:59;6.80;91.60
55634;DHT22;41504;53.162;6.788;2023-01-10T14:56:36;6.80;91.70
55634;DHT22;41504;53.162;6.788;2023-01-10T14:59:24;6.70;91.60
55634;DHT22;41504;53.162;6.788;2023-01-10T15:02:41;6.80;91.50
55634;DHT22;41504;53.162;6.788;2023-01-10T15:04:49;6.70;91.50
55634;DHT22;41504;53.162;6.788;2023-01-10T15:07:16;6.70;91.70
55634;DHT22;41504;53.162;6.788;2023-01-10T15:09:54;6.70;91.40
55634;DHT22;41504;53.162;6.788;2023-01-10T15:12:22;6.80;91.20
55634;DHT22;41504;53.162;6.788;2023-01-10T15:14:59;6.70;91.40
55634;DHT22;41504;53.162;6.788;2023-01-10T15:17:26;6.70;91.40
55634;DHT22;41504;53.162;6.788;2023-01-10T15:19:52;6.70;91.40
55634;DHT22;41504;53.162;6.788;2023-01-10T15:27:28;6.70;91.10
55634;DHT22;41504;53.162;6.788;2023-01-10T15:29:55;6.70;91.10
55634;DHT22;41504;53.162;6.788;2023-01-10T15:32:27;6.70;91.20
55634;DHT22;41504;53.162;6.788;2023-01-10T15:34:54;6.80;91.20
55634;DHT22;41504;53.162;6.788;2023-01-10T15:37:24;6.80;91.20
55634;DHT22;41504;53.162;6.788;2023-01-10T15:39:53;6.80;91.20
55634;DHT22;41504;53.162;6.788;2023-01-10T15:42:20;6.70;91.00
55634;DHT22;41504;53.162;6.788;2023-01-10T15:44:48;6.80;91.00
55634;DHT22;41504;53.162;6.788;2023-01-10T15:50:27;6.80;90.90
55634;DHT22;41504;53.162;6.788;2023-01-10T15:52:56;6.80;91.00
55634;DHT22;41504;53.162;6.788;2023-01-10T15:58:27;6.80;90.70
55634;DHT22;41504;53.162;6.788;2023-01-10T16:00:55;6.80;90.80
55634;DHT22;41504;53.162;6.788;2023-01-10T16:03:54;6.80;90.70
55634;DHT22;41504;53.162;6.788;2023-01-10T16:08:52;6.80;90.60
55634;DHT22;41504;53.162;6.788;2023-01-10T16:11:23;6.80;90.60
55634;DHT22;41504;53.162;6.788;2023-01-10T16:14:10;6.90;90.60
55634;DHT22;41504;53.162;6.788;2023-01-10T16:16:36;6.90;90.70
55634;DHT22;41504;53.162;6.788;2023-01-10T16:19:02;6.80;90.70
55634;DHT22;41504;53.162;6.788;2023-01-10T16:21:35;6.90;90.70
55634;DHT22;41504;53.162;6.788;2023-01-10T16:24:01;6.90;90.70
55634;DHT22;41504;53.162;6.788;2023-01-10T16:26:30;6.80;90.70
55634;DHT22;41504;53.162;6.788;2023-01-10T16:28:56;6.90;90.80
55634;DHT22;41504;53.162;6.788;2023-01-10T16:31:22;6.90;90.60
55634;DHT22;41504;53.162;6.788;2023-01-10T16:33:47;6.80;90.80
55634;DHT22;41504;53.162;6.788;2023-01-10T16:36:16;6.80;90.90
55634;DHT22;41504;53.162;6.788;2023-01-10T16:38:42;6.80;91.00
55634;DHT22;41504;53.162;6.788;2023-01-10T16:41:09;6.80;91.10
55634;DHT22;41504;53.162;6.788;2023-01-10T16:43:54;6.80;91.10
55634;DHT22;41504;53.162;6.788;2023-01-10T16:46:21;6.80;91.30
55634;DHT22;41504;53.162;6.788;2023-01-10T16:48:46;6.70;91.40
55634;DHT22;41504;53.162;6.788;2023-01-10T16:51:22;6.70;91.60
55634;DHT22;41504;53.162;6.788;2023-01-10T16:53:49;6.70;91.60
55634;DHT22;41504;53.162;6.788;2023-01-10T16:56:21;6.70;91.70
55634;DHT22;41504;53.162;6.788;2023-01-10T16:58:47;6.70;91.80
55634;DHT22;41504;53.162;6.788;2023-01-10T17:01:16;6.70;91.80
55634;DHT22;41504;53.162;6.788;2023-01-10T17:03:42;6.70;91.90
55634;DHT22;41504;53.162;6.788;2023-01-10T17:06:10;6.70;91.90
55634;DHT22;41504;53.162;6.788;2023-01-10T17:08:36;6.60;92.00
55634;DHT22;41504;53.162;6.788;2023-01-10T17:11:04;6.60;92.10
55634;DHT22;41504;53.162;6.788;2023-01-10T17:13:39;6.60;92.20
55634;DHT22;41504;53.162;6.788;2023-01-10T17:16:08;6.60;92.30
55634;DHT22;41504;53.162;6.788;2023-01-10T17:18:37;6.60;92.30
55634;DHT22;41504;53.162;6.788;2023-01-10T17:21:03;6.60;92.30
55634;DHT22;41504;53.162;6.788;2023-01-10T17:23:35;6.60;92.30
55634;DHT22;41504;53.162;6.788;2023-01-10T17:26:10;6.60;92.30
55634;DHT22;41504;53.162;6.788;2023-01-10T17:28:36;6.60;92.40
55634;DHT22;41504;53.162;6.788;2023-01-10T17:31:06;6.60;92.50
55634;DHT22;41504;53.162;6.788;2023-01-10T17:33:34;6.60;92.50
55634;DHT22;41504;53.162;6.788;2023-01-10T17:36:00;6.60;92.50
55634;DHT22;41504;53.162;6.788;2023-01-10T17:38:27;6.60;92.60
55634;DHT22;41504;53.162;6.788;2023-01-10T17:40:53;6.60;92.60
55634;DHT22;41504;53.162;6.788;2023-01-10T17:43:21;6.60;92.60
55634;DHT22;41504;53.162;6.788;2023-01-10T17:45:49;6.60;92.60
55634;DHT22;41504;53.162;6.788;2023-01-10T17:48:17;6.60;92.70
55634;DHT22;41504;53.162;6.788;2023-01-10T17:50:43;6.60;92.80
55634;DHT22;41504;53.162;6.788;2023-01-10T17:53:14;6.60;92.80
55634;DHT22;41504;53.162;6.788;2023-01-10T17:55:45;6.60;92.80
55634;DHT22;41504;53.162;6.788;2023-01-10T17:58:11;6.60;92.80
55634;DHT22;41504;53.162;6.788;2023-01-10T18:00:40;6.60;92.90
55634;DHT22;41504;53.162;6.788;2023-01-10T18:03:07;6.50;93.00
55634;DHT22;41504;53.162;6.788;2023-01-10T18:05:47;6.50;93.00
55634;DHT22;41504;53.162;6.788;2023-01-10T18:08:12;6.60;92.90
55634;DHT22;41504;53.162;6.788;2023-01-10T18:10:38;6.50;93.00
55634;DHT22;41504;53.162;6.788;2023-01-10T18:13:09;6.60;93.00